sensor_id;sensor_type;location;lat;lon;timestamp;P1;durP1;ratioP1;P2;durP2;ratioP2
82352;SDS011;71954;47.430;18.920;2024-01-30T00:01:07;14.25;;;7.25;;
82352;SDS011;71954;47.430;18.920;2024-01-30T00:03:34;17.80;;;7.82;;
82352;SDS011;71954;47.430;18.920;2024-01-30T00:06:00;16.55;;;9.68;;
82352;SDS011;71954;47.430;18.920;2024-01-30T00:08:29;18.73;;;10.43;;
82352;SDS011;71954;47.430;18.920;2024-01-30T00:10:56;14.35;;;7.78;;
82352;SDS011;71954;47.430;18.920;2024-01-30T00:13:23;13.98;;;8.10;;
82352;SDS011;71954;47.430;18.920;2024-01-30T00:15:49;17.25;;;8.10;;
82352;SDS011;71954;47.430;18.920;2024-01-30T00:18:16;18.40;;;8.40;;
82352;SDS011;71954;47.430;18.920;2024-01-30T00:20:43;16.70;;;7.55;;
82352;SDS011;71954;47.430;18.920;2024-01-30T00:23:09;15.98;;;7.53;;
82352;SDS011;71954;47.430;18.920;2024-01-30T00:25:36;15.43;;;7.18;;
82352;SDS011;71954;47.430;18.920;2024-01-30T00:28:03;14.52;;;8.13;;
82352;SDS011;71954;47.430;18.920;2024-01-30T00:30:30;15.73;;;8.02;;
82352;SDS011;71954;47.430;18.920;2024-01-30T00:32:56;16.73;;;6.65;;
82352;SDS011;71954;47.430;18.920;2024-01-30T00:35:23;14.35;;;7.32;;
82352;SDS011;71954;47.430;18.920;2024-01-30T00:37:49;13.32;;;7.40;;
82352;SDS011;71954;47.430;18.920;2024-01-30T00:40:16;13.95;;;8.13;;
82352;SDS011;71954;47.430;18.920;2024-01-30T00:45:14;11.85;;;6.40;;
82352;SDS011;71954;47.430;18.920;2024-01-30T00:47:41;18.23;;;7.97;;
82352;SDS011;71954;47.430;18.920;2024-01-30T00:50:09;16.80;;;8.15;;
82352;SDS011;71954;47.430;18.920;2024-01-30T00:52:36;15.35;;;7.35;;
82352;SDS011;71954;47.430;18.920;2024-01-30T00:55:03;14.45;;;8.35;;
82352;SDS011;71954;47.430;18.920;2024-01-30T00:57:30;14.35;;;9.27;;
82352;SDS011;71954;47.430;18.920;2024-01-30T00:59:56;16.83;;;9.18;;
82352;SDS011;71954;47.430;18.920;2024-01-30T01:02:23;18.73;;;9.73;;
82352;SDS011;71954;47.430;18.920;2024-01-30T01:04:50;21.13;;;10.35;;
82352;SDS011;71954;47.430;18.920;2024-01-30T01:07:16;24.70;;;10.57;;
82352;SDS011;71954;47.430;18.920;2024-01-30T01:09:43;22.33;;;11.75;;
82352;SDS011;71954;47.430;18.920;2024-01-30T01:12:10;17.85;;;10.15;;
82352;SDS011;71954;47.430;18.920;2024-01-30T01:14:36;29.23;;;13.20;;
82352;SDS011;71954;47.430;18.920;2024-01-30T01:17:03;22.42;;;12.13;;
82352;SDS011;71954;47.430;18.920;2024-01-30T01:19:29;22.63;;;12.77;;
82352;SDS011;71954;47.430;18.920;2024-01-30T01:21:56;23.40;;;11.02;;
82352;SDS011;71954;47.430;18.920;2024-01-30T01:24:23;21.27;;;11.48;;
82352;SDS011;71954;47.430;18.920;2024-01-30T01:26:50;23.80;;;10.63;;
82352;SDS011;71954;47.430;18.920;2024-01-30T01:29:17;18.60;;;10.02;;
82352;SDS011;71954;47.430;18.920;2024-01-30T01:31:44;22.77;;;10.90;;
82352;SDS011;71954;47.430;18.920;2024-01-30T01:34:10;16.70;;;9.70;;
82352;SDS011;71954;47.430;18.920;2024-01-30T01:36:38;18.48;;;9.25;;
82352;SDS011;71954;47.430;18.920;2024-01-30T01:39:05;19.00;;;9.30;;
82352;SDS011;71954;47.430;18.920;2024-01-30T01:41:32;16.10;;;7.35;;
82352;SDS011;71954;47.430;18.920;2024-01-30T01:43:59;16.63;;;7.40;;
82352;SDS011;71954;47.430;18.920;2024-01-30T01:46:26;18.80;;;9.18;;
82352;SDS011;71954;47.430;18.920;2024-01-30T01:48:56;17.48;;;8.13;;
82352;SDS011;71954;47.430;18.920;2024-01-30T01:51:24;15.07;;;7.40;;
82352;SDS011;71954;47.430;18.920;2024-01-30T01:53:53;14.45;;;7.95;;
82352;SDS011;71954;47.430;18.920;2024-01-30T01:56:22;19.25;;;7.97;;
82352;SDS011;71954;47.430;18.920;2024-01-30T01:58:49;21.55;;;10.38;;
82352;SDS011;71954;47.430;18.920;2024-01-30T02:01:20;18.77;;;7.75;;
82352;SDS011;71954;47.430;18.920;2024-01-30T02:03:49;18.25;;;8.25;;
82352;SDS011;71954;47.430;18.920;2024-01-30T02:06:16;14.85;;;7.70;;
82352;SDS011;71954;47.430;18.920;2024-01-30T02:08:43;16.42;;;7.57;;
82352;SDS011;71954;47.430;18.920;2024-01-30T02:11:10;16.52;;;8.00;;
82352;SDS011;71954;47.430;18.920;2024-01-30T02:13:37;18.10;;;8.60;;
82352;SDS011;71954;47.430;18.920;2024-01-30T02:16:04;19.05;;;8.32;;
82352;SDS011;71954;47.430;18.920;2024-01-30T02:18:31;24.33;;;8.52;;
82352;SDS011;71954;47.430;18.920;2024-01-30T02:20:58;21.10;;;9.82;;
82352;SDS011;71954;47.430;18.920;2024-01-30T02:23:30;20.80;;;10.93;;
82352;SDS011;71954;47.430;18.920;2024-01-30T02:25:59;16.67;;;9.65;;
82352;SDS011;71954;47.430;18.920;2024-01-30T02:28:26;20.80;;;9.68;;
82352;SDS011;71954;47.430;18.920;2024-01-30T02:30:56;16.27;;;7.30;;
82352;SDS011;71954;47.430;18.920;2024-01-30T02:33:22;16.02;;;7.15;;
82352;SDS011;71954;47.430;18.920;2024-01-30T02:35:49;19.48;;;9.15;;
82352;SDS011;71954;47.430;18.920;2024-01-30T02:38:16;19.65;;;9.10;;
82352;SDS011;71954;47.430;18.920;2024-01-30T02:40:42;16.48;;;7.68;;
82352;SDS011;71954;47.430;18.920;2024-01-30T02:43:09;16.20;;;7.45;;
82352;SDS011;71954;47.430;18.920;2024-01-30T02:45:36;20.00;;;7.93;;
82352;SDS011;71954;47.430;18.920;2024-01-30T02:48:02;15.43;;;7.75;;
82352;SDS011;71954;47.430;18.920;2024-01-30T02:50:29;14.18;;;6.78;;
82352;SDS011;71954;47.430;18.920;2024-01-30T02:52:56;19.35;;;8.18;;
82352;SDS011;71954;47.430;18.920;2024-01-30T02:55:22;14.70;;;8.07;;
82352;SDS011;71954;47.430;18.920;2024-01-30T02:57:49;17.85;;;7.40;;
82352;SDS011;71954;47.430;18.920;2024-01-30T03:00:16;13.68;;;7.40;;
82352;SDS011;71954;47.430;18.920;2024-01-30T03:02:42;15.40;;;7.68;;
82352;SDS011;71954;47.430;18.920;2024-01-30T03:05:09;14.65;;;7.10;;
82352;SDS011;71954;47.430;18.920;2024-01-30T03:07:36;17.20;;;7.88;;
82352;SDS011;71954;47.430;18.920;2024-01-30T03:10:03;18.08;;;8.43;;
82352;SDS011;71954;47.430;18.920;2024-01-30T03:12:31;15.77;;;7.38;;
82352;SDS011;71954;47.430;18.920;2024-01-30T03:14:58;12.68;;;6.95;;
82352;SDS011;71954;47.430;18.920;2024-01-30T03:17:25;13.98;;;7.65;;
82352;SDS011;71954;47.430;18.920;2024-01-30T03:19:51;15.15;;;7.57;;
82352;SDS011;71954;47.430;18.920;2024-01-30T03:22:18;14.40;;;7.05;;
82352;SDS011;71954;47.430;18.920;2024-01-30T03:24:45;15.27;;;7.10;;
82352;SDS011;71954;47.430;18.920;2024-01-30T03:27:11;14.27;;;6.53;;
82352;SDS011;71954;47.430;18.920;2024-01-30T03:29:38;13.55;;;6.68;;
82352;SDS011;71954;47.430;18.920;2024-01-30T03:32:04;14.43;;;6.85;;
82352;SDS011;71954;47.430;18.920;2024-01-30T03:34:31;19.88;;;7.05;;
82352;SDS011;71954;47.430;18.920;2024-01-30T03:36:58;15.18;;;7.63;;
82352;SDS011;71954;47.430;18.920;2024-01-30T03:39:24;14.52;;;6.82;;
82352;SDS011;71954;47.430;18.920;2024-01-30T03:41:51;17.45;;;7.57;;
82352;SDS011;71954;47.430;18.920;2024-01-30T03:44:18;12.02;;;6.55;;
82352;SDS011;71954;47.430;18.920;2024-01-30T03:46:44;18.13;;;8.52;;
82352;SDS011;71954;47.430;18.920;2024-01-30T03:49:12;12.73;;;6.78;;
82352;SDS011;71954;47.430;18.920;2024-01-30T03:51:38;13.93;;;6.55;;
82352;SDS011;71954;47.430;18.920;2024-01-30T03:54:05;12.80;;;6.20;;
82352;SDS011;71954;47.430;18.920;2024-01-30T03:56:32;17.02;;;7.90;;
82352;SDS011;71954;47.430;18.920;2024-01-30T03:58:58;13.95;;;6.35;;
82352;SDS011;71954;47.430;18.920;2024-01-30T04:01:26;15.82;;;7.13;;
82352;SDS011;71954;47.430;18.920;2024-01-30T04:03:53;16.25;;;7.78;;
82352;SDS011;71954;47.430;18.920;2024-01-30T04:06:20;14.88;;;7.30;;
82352;SDS011;71954;47.430;18.920;2024-01-30T04:08:46;14.80;;;7.53;;
82352;SDS011;71954;47.430;18.920;2024-01-30T04:11:13;12.80;;;7.30;;
82352;SDS011;71954;47.430;18.920;2024-01-30T04:13:40;17.63;;;8.40;;
82352;SDS011;71954;47.430;18.920;2024-01-30T04:16:18;15.63;;;7.93;;
82352;SDS011;71954;47.430;18.920;2024-01-30T04:18:46;17.10;;;8.68;;
82352;SDS011;71954;47.430;18.920;2024-01-30T04:21:13;21.27;;;9.07;;
82352;SDS011;71954;47.430;18.920;2024-01-30T04:23:40;21.58;;;11.50;;
82352;SDS011;71954;47.430;18.920;2024-01-30T04:26:07;21.55;;;9.45;;
82352;SDS011;71954;47.430;18.920;2024-01-30T04:28:33;24.00;;;11.07;;
82352;SDS011;71954;47.430;18.920;2024-01-30T04:31:00;24.00;;;10.73;;
82352;SDS011;71954;47.430;18.920;2024-01-30T04:33:26;21.42;;;11.93;;
82352;SDS011;71954;47.430;18.920;2024-01-30T04:35:53;17.65;;;11.10;;
82352;SDS011;71954;47.430;18.920;2024-01-30T04:38:20;21.23;;;9.82;;
82352;SDS011;71954;47.430;18.920;2024-01-30T04:40:46;19.67;;;12.00;;
82352;SDS011;71954;47.430;18.920;2024-01-30T04:43:13;24.13;;;10.70;;
82352;SDS011;71954;47.430;18.920;2024-01-30T04:45:41;21.65;;;9.27;;
82352;SDS011;71954;47.430;18.920;2024-01-30T04:48:08;20.88;;;10.00;;
82352;SDS011;71954;47.430;18.920;2024-01-30T04:50:35;18.13;;;10.13;;
82352;SDS011;71954;47.430;18.920;2024-01-30T04:53:02;19.65;;;10.48;;
82352;SDS011;71954;47.430;18.920;2024-01-30T04:55:29;16.42;;;9.05;;
82352;SDS011;71954;47.430;18.920;2024-01-30T04:57:55;23.42;;;10.75;;
82352;SDS011;71954;47.430;18.920;2024-01-30T05:00:22;19.23;;;9.32;;
82352;SDS011;71954;47.430;18.920;2024-01-30T05:02:48;18.75;;;9.48;;
82352;SDS011;71954;47.430;18.920;2024-01-30T05:05:15;19.33;;;10.23;;
82352;SDS011;71954;47.430;18.920;2024-01-30T05:07:43;15.32;;;8.18;;
82352;SDS011;71954;47.430;18.920;2024-01-30T05:10:09;14.95;;;8.52;;
82352;SDS011;71954;47.430;18.920;2024-01-30T05:12:36;18.35;;;8.88;;
82352;SDS011;71954;47.430;18.920;2024-01-30T05:15:02;18.15;;;7.07;;
82352;SDS011;71954;47.430;18.920;2024-01-30T05:17:29;15.80;;;6.93;;
82352;SDS011;71954;47.430;18.920;2024-01-30T05:19:56;15.05;;;7.07;;
82352;SDS011;71954;47.430;18.920;2024-01-30T05:22:23;16.10;;;7.93;;
82352;SDS011;71954;47.430;18.920;2024-01-30T05:24:49;12.25;;;6.38;;
82352;SDS011;71954;47.430;18.920;2024-01-30T05:27:16;12.80;;;5.75;;
82352;SDS011;71954;47.430;18.920;2024-01-30T05:29:43;14.35;;;6.72;;
82352;SDS011;71954;47.430;18.920;2024-01-30T05:32:09;14.35;;;6.93;;
82352;SDS011;71954;47.430;18.920;2024-01-30T05:34:37;15.30;;;8.38;;
82352;SDS011;71954;47.430;18.920;2024-01-30T05:37:03;14.98;;;6.55;;
82352;SDS011;71954;47.430;18.920;2024-01-30T05:39:30;11.88;;;6.13;;
82352;SDS011;71954;47.430;18.920;2024-01-30T05:41:59;15.02;;;6.70;;
82352;SDS011;71954;47.430;18.920;2024-01-30T05:44:26;15.73;;;7.15;;
82352;SDS011;71954;47.430;18.920;2024-01-30T05:46:52;15.13;;;6.55;;
82352;SDS011;71954;47.430;18.920;2024-01-30T05:49:19;12.35;;;5.97;;
82352;SDS011;71954;47.430;18.920;2024-01-30T05:51:46;12.93;;;6.20;;
82352;SDS011;71954;47.430;18.920;2024-01-30T05:54:13;13.88;;;6.15;;
82352;SDS011;71954;47.430;18.920;2024-01-30T05:56:43;14.38;;;6.75;;
82352;SDS011;71954;47.430;18.920;2024-01-30T05:59:09;13.32;;;6.13;;
82352;SDS011;71954;47.430;18.920;2024-01-30T06:01:36;14.40;;;6.93;;
82352;SDS011;71954;47.430;18.920;2024-01-30T06:04:03;12.60;;;5.97;;
82352;SDS011;71954;47.430;18.920;2024-01-30T06:06:30;12.20;;;6.10;;
82352;SDS011;71954;47.430;18.920;2024-01-30T06:08:56;15.63;;;6.75;;
82352;SDS011;71954;47.430;18.920;2024-01-30T06:11:23;13.55;;;8.10;;
82352;SDS011;71954;47.430;18.920;2024-01-30T06:13:49;13.27;;;6.63;;
82352;SDS011;71954;47.430;18.920;2024-01-30T06:16:16;13.27;;;6.45;;
82352;SDS011;71954;47.430;18.920;2024-01-30T06:18:43;13.60;;;7.35;;
82352;SDS011;71954;47.430;18.920;2024-01-30T06:21:09;14.52;;;6.60;;
82352;SDS011;71954;47.430;18.920;2024-01-30T06:23:38;11.10;;;5.55;;
82352;SDS011;71954;47.430;18.920;2024-01-30T06:26:06;14.73;;;5.93;;
82352;SDS011;71954;47.430;18.920;2024-01-30T06:28:33;14.60;;;6.90;;
82352;SDS011;71954;47.430;18.920;2024-01-30T06:31:00;13.07;;;7.47;;
82352;SDS011;71954;47.430;18.920;2024-01-30T06:33:27;16.05;;;8.27;;
82352;SDS011;71954;47.430;18.920;2024-01-30T06:35:54;17.13;;;8.52;;
82352;SDS011;71954;47.430;18.920;2024-01-30T06:38:21;14.23;;;6.78;;
82352;SDS011;71954;47.430;18.920;2024-01-30T06:40:47;15.27;;;7.88;;
82352;SDS011;71954;47.430;18.920;2024-01-30T06:43:14;16.35;;;7.40;;
82352;SDS011;71954;47.430;18.920;2024-01-30T06:45:40;16.60;;;8.38;;
82352;SDS011;71954;47.430;18.920;2024-01-30T06:48:09;15.63;;;6.53;;
82352;SDS011;71954;47.430;18.920;2024-01-30T06:50:35;14.18;;;6.85;;
82352;SDS011;71954;47.430;18.920;2024-01-30T06:53:02;19.70;;;8.25;;
82352;SDS011;71954;47.430;18.920;2024-01-30T06:55:28;16.33;;;8.40;;
82352;SDS011;71954;47.430;18.920;2024-01-30T06:57:55;15.55;;;7.55;;
82352;SDS011;71954;47.430;18.920;2024-01-30T07:00:22;13.63;;;7.93;;
82352;SDS011;71954;47.430;18.920;2024-01-30T07:02:48;18.27;;;8.73;;
82352;SDS011;71954;47.430;18.920;2024-01-30T07:05:15;13.73;;;7.78;;
82352;SDS011;71954;47.430;18.920;2024-01-30T07:07:43;16.20;;;7.13;;
82352;SDS011;71954;47.430;18.920;2024-01-30T07:10:10;17.88;;;8.77;;
82352;SDS011;71954;47.430;18.920;2024-01-30T07:12:37;20.80;;;9.10;;
82352;SDS011;71954;47.430;18.920;2024-01-30T07:15:03;23.95;;;11.80;;
82352;SDS011;71954;47.430;18.920;2024-01-30T07:17:34;23.80;;;12.50;;
82352;SDS011;71954;47.430;18.920;2024-01-30T07:20:01;24.95;;;11.95;;
82352;SDS011;71954;47.430;18.920;2024-01-30T07:22:31;22.45;;;13.40;;
82352;SDS011;71954;47.430;18.920;2024-01-30T07:24:58;23.98;;;13.73;;
82352;SDS011;71954;47.430;18.920;2024-01-30T07:27:24;25.35;;;13.98;;
82352;SDS011;71954;47.430;18.920;2024-01-30T07:29:51;23.02;;;13.13;;
82352;SDS011;71954;47.430;18.920;2024-01-30T07:32:18;23.20;;;12.38;;
82352;SDS011;71954;47.430;18.920;2024-01-30T07:34:45;24.15;;;12.30;;
82352;SDS011;71954;47.430;18.920;2024-01-30T07:37:31;22.30;;;11.35;;
82352;SDS011;71954;47.430;18.920;2024-01-30T07:39:58;24.05;;;12.10;;
82352;SDS011;71954;47.430;18.920;2024-01-30T07:42:24;18.10;;;10.63;;
82352;SDS011;71954;47.430;18.920;2024-01-30T07:44:51;20.77;;;9.52;;
82352;SDS011;71954;47.430;18.920;2024-01-30T07:47:18;20.40;;;10.27;;
82352;SDS011;71954;47.430;18.920;2024-01-30T07:49:45;19.73;;;8.77;;
82352;SDS011;71954;47.430;18.920;2024-01-30T07:52:11;21.25;;;9.48;;
82352;SDS011;71954;47.430;18.920;2024-01-30T07:54:38;26.13;;;13.18;;
82352;SDS011;71954;47.430;18.920;2024-01-30T07:57:05;21.10;;;11.68;;
82352;SDS011;71954;47.430;18.920;2024-01-30T07:59:31;24.60;;;11.52;;
82352;SDS011;71954;47.430;18.920;2024-01-30T08:01:58;24.38;;;13.50;;
82352;SDS011;71954;47.430;18.920;2024-01-30T08:04:25;24.45;;;13.20;;
82352;SDS011;71954;47.430;18.920;2024-01-30T08:06:52;22.17;;;12.43;;
82352;SDS011;71954;47.430;18.920;2024-01-30T08:09:18;25.02;;;12.77;;
82352;SDS011;71954;47.430;18.920;2024-01-30T08:11:45;27.60;;;13.57;;
82352;SDS011;71954;47.430;18.920;2024-01-30T08:14:12;26.50;;;12.60;;
82352;SDS011;71954;47.430;18.920;2024-01-30T08:16:40;23.95;;;13.23;;
82352;SDS011;71954;47.430;18.920;2024-01-30T08:19:06;28.10;;;13.48;;
82352;SDS011;71954;47.430;18.920;2024-01-30T08:21:33;22.75;;;13.70;;
82352;SDS011;71954;47.430;18.920;2024-01-30T08:24:05;26.02;;;13.00;;
82352;SDS011;71954;47.430;18.920;2024-01-30T08:26:32;29.50;;;14.50;;
82352;SDS011;71954;47.430;18.920;2024-01-30T08:28:59;29.13;;;16.25;;
82352;SDS011;71954;47.430;18.920;2024-01-30T08:31:26;32.17;;;15.85;;
82352;SDS011;71954;47.430;18.920;2024-01-30T08:33:53;24.42;;;13.63;;
82352;SDS011;71954;47.430;18.920;2024-01-30T08:36:20;29.83;;;15.93;;
82352;SDS011;71954;47.430;18.920;2024-01-30T08:38:46;29.05;;;15.85;;
82352;SDS011;71954;47.430;18.920;2024-01-30T08:41:13;27.98;;;14.25;;
82352;SDS011;71954;47.430;18.920;2024-01-30T08:43:40;26.92;;;14.20;;
82352;SDS011;71954;47.430;18.920;2024-01-30T08:46:07;33.60;;;15.23;;
82352;SDS011;71954;47.430;18.920;2024-01-30T08:48:33;35.25;;;16.90;;
82352;SDS011;71954;47.430;18.920;2024-01-30T08:51:01;31.48;;;16.67;;
82352;SDS011;71954;47.430;18.920;2024-01-30T08:53:28;30.08;;;15.30;;
82352;SDS011;71954;47.430;18.920;2024-01-30T08:55:55;30.83;;;15.70;;
82352;SDS011;71954;47.430;18.920;2024-01-30T08:58:21;32.05;;;17.08;;
82352;SDS011;71954;47.430;18.920;2024-01-30T09:00:48;30.23;;;15.13;;
82352;SDS011;71954;47.430;18.920;2024-01-30T09:03:15;28.30;;;13.13;;
82352;SDS011;71954;47.430;18.920;2024-01-30T09:05:41;24.83;;;14.93;;
82352;SDS011;71954;47.430;18.920;2024-01-30T09:08:08;30.10;;;17.45;;
82352;SDS011;71954;47.430;18.920;2024-01-30T09:10:35;29.27;;;14.52;;
82352;SDS011;71954;47.430;18.920;2024-01-30T09:13:01;29.40;;;13.77;;
82352;SDS011;71954;47.430;18.920;2024-01-30T09:15:28;26.55;;;13.25;;
82352;SDS011;71954;47.430;18.920;2024-01-30T09:17:55;28.17;;;13.85;;
82352;SDS011;71954;47.430;18.920;2024-01-30T09:20:22;29.40;;;16.00;;
82352;SDS011;71954;47.430;18.920;2024-01-30T09:22:49;30.13;;;14.98;;
82352;SDS011;71954;47.430;18.920;2024-01-30T09:25:15;27.50;;;15.23;;
82352;SDS011;71954;47.430;18.920;2024-01-30T09:27:42;29.27;;;14.50;;
82352;SDS011;71954;47.430;18.920;2024-01-30T09:30:09;31.85;;;16.35;;
82352;SDS011;71954;47.430;18.920;2024-01-30T09:32:36;32.97;;;16.55;;
82352;SDS011;71954;47.430;18.920;2024-01-30T09:35:02;30.17;;;14.85;;
82352;SDS011;71954;47.430;18.920;2024-01-30T09:37:30;29.35;;;15.82;;
82352;SDS011;71954;47.430;18.920;2024-01-30T09:39:57;33.85;;;14.35;;
82352;SDS011;71954;47.430;18.920;2024-01-30T09:44:58;31.88;;;16.67;;
82352;SDS011;71954;47.430;18.920;2024-01-30T09:47:24;31.42;;;15.02;;
82352;SDS011;71954;47.430;18.920;2024-01-30T09:49:52;31.70;;;15.73;;
82352;SDS011;71954;47.430;18.920;2024-01-30T09:52:19;34.00;;;14.38;;
82352;SDS011;71954;47.430;18.920;2024-01-30T09:54:46;30.77;;;17.00;;
82352;SDS011;71954;47.430;18.920;2024-01-30T09:57:15;34.65;;;14.88;;
82352;SDS011;71954;47.430;18.920;2024-01-30T09:59:42;31.90;;;17.40;;
82352;SDS011;71954;47.430;18.920;2024-01-30T10:02:10;28.63;;;16.15;;
82352;SDS011;71954;47.430;18.920;2024-01-30T10:04:37;19.58;;;9.43;;
82352;SDS011;71954;47.430;18.920;2024-01-30T10:07:04;23.60;;;11.85;;
82352;SDS011;71954;47.430;18.920;2024-01-30T10:09:33;28.45;;;12.32;;
82352;SDS011;71954;47.430;18.920;2024-01-30T10:12:01;22.45;;;11.02;;
82352;SDS011;71954;47.430;18.920;2024-01-30T10:14:29;21.30;;;10.55;;
82352;SDS011;71954;47.430;18.920;2024-01-30T10:16:57;24.08;;;10.73;;
82352;SDS011;71954;47.430;18.920;2024-01-30T10:19:24;27.30;;;14.30;;
82352;SDS011;71954;47.430;18.920;2024-01-30T10:21:51;25.92;;;14.85;;
82352;SDS011;71954;47.430;18.920;2024-01-30T10:24:18;24.70;;;12.88;;
82352;SDS011;71954;47.430;18.920;2024-01-30T10:26:44;23.48;;;12.15;;
82352;SDS011;71954;47.430;18.920;2024-01-30T10:29:11;24.42;;;13.20;;
82352;SDS011;71954;47.430;18.920;2024-01-30T10:31:38;29.20;;;13.70;;
82352;SDS011;71954;47.430;18.920;2024-01-30T10:34:04;26.88;;;13.38;;
82352;SDS011;71954;47.430;18.920;2024-01-30T10:36:45;27.70;;;12.52;;
82352;SDS011;71954;47.430;18.920;2024-01-30T10:39:17;24.33;;;11.88;;
82352;SDS011;71954;47.430;18.920;2024-01-30T10:41:44;25.50;;;13.27;;
82352;SDS011;71954;47.430;18.920;2024-01-30T10:44:15;27.10;;;13.43;;
82352;SDS011;71954;47.430;18.920;2024-01-30T10:46:47;22.45;;;11.13;;
82352;SDS011;71954;47.430;18.920;2024-01-30T10:49:21;24.80;;;11.52;;
82352;SDS011;71954;47.430;18.920;2024-01-30T10:51:48;26.30;;;11.70;;
82352;SDS011;71954;47.430;18.920;2024-01-30T10:54:16;28.98;;;13.10;;
82352;SDS011;71954;47.430;18.920;2024-01-30T10:56:44;29.00;;;14.13;;
82352;SDS011;71954;47.430;18.920;2024-01-30T10:59:10;31.13;;;16.13;;
82352;SDS011;71954;47.430;18.920;2024-01-30T11:01:39;29.15;;;14.80;;
82352;SDS011;71954;47.430;18.920;2024-01-30T11:04:06;28.50;;;14.48;;
82352;SDS011;71954;47.430;18.920;2024-01-30T11:06:40;27.83;;;13.05;;
82352;SDS011;71954;47.430;18.920;2024-01-30T11:09:10;24.90;;;12.10;;
82352;SDS011;71954;47.430;18.920;2024-01-30T11:11:57;27.13;;;12.63;;
82352;SDS011;71954;47.430;18.920;2024-01-30T11:14:29;22.55;;;11.05;;
82352;SDS011;71954;47.430;18.920;2024-01-30T11:16:59;23.55;;;12.73;;
82352;SDS011;71954;47.430;18.920;2024-01-30T11:19:26;21.95;;;10.70;;
82352;SDS011;71954;47.430;18.920;2024-01-30T11:21:54;22.92;;;12.13;;
82352;SDS011;71954;47.430;18.920;2024-01-30T11:24:23;21.25;;;10.88;;
82352;SDS011;71954;47.430;18.920;2024-01-30T11:26:56;20.33;;;9.70;;
82352;SDS011;71954;47.430;18.920;2024-01-30T11:29:28;19.42;;;9.45;;
82352;SDS011;71954;47.430;18.920;2024-01-30T11:31:55;15.65;;;6.47;;
82352;SDS011;71954;47.430;18.920;2024-01-30T11:34:23;17.02;;;9.00;;
82352;SDS011;71954;47.430;18.920;2024-01-30T11:36:59;15.80;;;9.02;;
82352;SDS011;71954;47.430;18.920;2024-01-30T11:39:30;21.83;;;9.43;;
82352;SDS011;71954;47.430;18.920;2024-01-30T11:41:57;23.83;;;10.55;;
82352;SDS011;71954;47.430;18.920;2024-01-30T11:44:25;22.85;;;10.85;;
82352;SDS011;71954;47.430;18.920;2024-01-30T11:46:52;19.98;;;10.25;;
82352;SDS011;71954;47.430;18.920;2024-01-30T11:49:19;20.55;;;8.93;;
82352;SDS011;71954;47.430;18.920;2024-01-30T11:51:46;19.60;;;9.13;;
82352;SDS011;71954;47.430;18.920;2024-01-30T11:54:18;19.15;;;9.60;;
82352;SDS011;71954;47.430;18.920;2024-01-30T11:56:44;18.75;;;9.20;;
82352;SDS011;71954;47.430;18.920;2024-01-30T11:59:11;18.98;;;9.45;;
82352;SDS011;71954;47.430;18.920;2024-01-30T12:01:38;17.05;;;9.52;;
82352;SDS011;71954;47.430;18.920;2024-01-30T12:04:05;16.05;;;7.45;;
82352;SDS011;71954;47.430;18.920;2024-01-30T12:06:36;16.58;;;7.55;;
82352;SDS011;71954;47.430;18.920;2024-01-30T12:09:04;16.98;;;7.72;;
82352;SDS011;71954;47.430;18.920;2024-01-30T12:11:30;19.02;;;9.52;;
82352;SDS011;71954;47.430;18.920;2024-01-30T12:13:57;17.85;;;9.18;;
82352;SDS011;71954;47.430;18.920;2024-01-30T12:16:24;19.10;;;8.85;;
82352;SDS011;71954;47.430;18.920;2024-01-30T12:18:58;20.00;;;7.90;;
82352;SDS011;71954;47.430;18.920;2024-01-30T12:21:27;17.75;;;8.07;;
82352;SDS011;71954;47.430;18.920;2024-01-30T12:23:55;15.52;;;7.63;;
82352;SDS011;71954;47.430;18.920;2024-01-30T12:26:24;16.70;;;9.50;;
82352;SDS011;71954;47.430;18.920;2024-01-30T12:28:56;15.30;;;8.18;;
82352;SDS011;71954;47.430;18.920;2024-01-30T12:31:25;15.98;;;8.68;;
82352;SDS011;71954;47.430;18.920;2024-01-30T12:33:56;14.45;;;8.25;;
82352;SDS011;71954;47.430;18.920;2024-01-30T12:36:24;13.70;;;6.97;;
82352;SDS011;71954;47.430;18.920;2024-01-30T12:38:51;17.00;;;7.00;;
82352;SDS011;71954;47.430;18.920;2024-01-30T12:41:19;15.45;;;7.00;;
82352;SDS011;71954;47.430;18.920;2024-01-30T12:46:16;12.38;;;7.00;;
82352;SDS011;71954;47.430;18.920;2024-01-30T12:48:43;13.45;;;5.55;;
82352;SDS011;71954;47.430;18.920;2024-01-30T12:51:11;10.52;;;6.25;;
82352;SDS011;71954;47.430;18.920;2024-01-30T12:53:38;15.52;;;6.55;;
82352;SDS011;71954;47.430;18.920;2024-01-30T12:56:04;16.98;;;6.47;;
82352;SDS011;71954;47.430;18.920;2024-01-30T12:58:31;13.48;;;7.05;;
82352;SDS011;71954;47.430;18.920;2024-01-30T13:00:58;13.77;;;6.72;;
82352;SDS011;71954;47.430;18.920;2024-01-30T13:03:25;14.75;;;7.10;;
82352;SDS011;71954;47.430;18.920;2024-01-30T13:05:52;11.98;;;5.93;;
82352;SDS011;71954;47.430;18.920;2024-01-30T13:08:19;11.32;;;5.75;;
82352;SDS011;71954;47.430;18.920;2024-01-30T13:10:45;13.13;;;6.43;;
82352;SDS011;71954;47.430;18.920;2024-01-30T13:13:15;11.45;;;5.68;;
82352;SDS011;71954;47.430;18.920;2024-01-30T13:15:46;13.07;;;6.13;;
82352;SDS011;71954;47.430;18.920;2024-01-30T13:18:14;13.00;;;6.22;;
82352;SDS011;71954;47.430;18.920;2024-01-30T13:20:41;11.65;;;7.38;;
82352;SDS011;71954;47.430;18.920;2024-01-30T13:23:08;15.38;;;7.20;;
82352;SDS011;71954;47.430;18.920;2024-01-30T13:25:34;13.55;;;6.32;;
82352;SDS011;71954;47.430;18.920;2024-01-30T13:28:01;13.20;;;6.07;;
82352;SDS011;71954;47.430;18.920;2024-01-30T13:30:28;12.00;;;6.00;;
82352;SDS011;71954;47.430;18.920;2024-01-30T13:32:54;10.77;;;5.38;;
82352;SDS011;71954;47.430;18.920;2024-01-30T13:35:21;13.80;;;5.82;;
82352;SDS011;71954;47.430;18.920;2024-01-30T13:37:48;12.25;;;7.38;;
82352;SDS011;71954;47.430;18.920;2024-01-30T13:40:14;12.75;;;6.55;;
82352;SDS011;71954;47.430;18.920;2024-01-30T13:42:43;11.57;;;6.03;;
82352;SDS011;71954;47.430;18.920;2024-01-30T13:45:09;12.43;;;5.80;;
82352;SDS011;71954;47.430;18.920;2024-01-30T13:50:03;12.77;;;6.43;;
82352;SDS011;71954;47.430;18.920;2024-01-30T13:52:32;10.63;;;5.13;;
82352;SDS011;71954;47.430;18.920;2024-01-30T13:55:09;13.25;;;6.63;;
82352;SDS011;71954;47.430;18.920;2024-01-30T13:57:36;12.10;;;6.90;;
82352;SDS011;71954;47.430;18.920;2024-01-30T14:00:03;11.75;;;5.95;;
82352;SDS011;71954;47.430;18.920;2024-01-30T14:02:33;11.35;;;6.07;;
82352;SDS011;71954;47.430;18.920;2024-01-30T14:05:00;15.45;;;7.38;;
82352;SDS011;71954;47.430;18.920;2024-01-30T14:07:27;17.05;;;8.70;;
82352;SDS011;71954;47.430;18.920;2024-01-30T14:09:54;13.68;;;7.00;;
82352;SDS011;71954;47.430;18.920;2024-01-30T14:12:21;14.98;;;7.05;;
82352;SDS011;71954;47.430;18.920;2024-01-30T14:14:48;16.50;;;7.38;;
82352;SDS011;71954;47.430;18.920;2024-01-30T14:17:14;16.25;;;8.70;;
82352;SDS011;71954;47.430;18.920;2024-01-30T14:19:41;15.95;;;8.00;;
82352;SDS011;71954;47.430;18.920;2024-01-30T14:22:08;16.80;;;8.68;;
82352;SDS011;71954;47.430;18.920;2024-01-30T14:24:34;14.73;;;7.55;;
82352;SDS011;71954;47.430;18.920;2024-01-30T14:27:01;16.40;;;7.28;;